Гран При США: третья тренировка

Гран При США: третья тренировка

В субботнее утро гонщики не спешили покинуть боксы на трассе в Остине. Не смотря на солнечную погоду, температура трассы была ниже почти в два раза от той, что будет в квалификации и в гонке.

Поэтому огранившись небольшой серией на Medium, гонщики просидели первую половину сессии в ожидании повышения температуры после довольно холодной техаской ночи.

За 20 минут до конца гонщики начали выезжать на составе Soft и традиционно быстрой была пара пилотов Mercedes. Льюис Хэмилтон показал лучшее время, опередив Нико Росберга на 0.8 секунды. Следом за ними в протоколе были два пилота Williams.

Обращает на себя внимание последнее место Себастьяна Феттеля, который продолжил готовиться к гонке и проехал 25 (больше всех) кругов с полными баками. Как ожидается, он будет стартовать с пит-лейна из-за замены всего комплекта силовой установки.

 
Дата01 ноября 2014Погодасолнечно
Киевское время17:00-18:00 ч.Температура10-12°C
Местное время10:00-11:00 ч.Влажность61-69%
Участники18Давление1.011 mBar
Рекорд гонки1:39.347 мин.Асфальт19-24°C
Рекорд квалификации1:35.657 мин.Ветер3,5 м/с, Северо-восточный
    

Результаты

поз.ПилотКомандаВремяОтставаниеот пред.Круги
144L. HamiltonMercedes1:37.107  13
26N. RosbergMercedes1:37.990+0:00.883+0:00.88315
319F. MassaWilliams1:38.214+0:01.107+0:00.22419
477V. BottasWilliams1:38.437+0:01.330+0:00.22320
514F. AlonsoFerrari1:38.727+0:01.620+0:00.29013
63D. RicciardoRed Bull1:38.927+0:01.820+0:00.20016
727N. HülkenbergForce India1:38.960+0:01.853+0:00.03320
899A. SutilSauber1:39.000+0:01.893+0:00.04022
97K. RäikkönenFerrari1:39.143+0:02.036+0:00.14317
1022J. ButtonMcLaren1:39.241+0:02.134+0:00.09822
1120K. MagnussenMcLaren1:39.335+0:02.228+0:00.09419
1213P. MaldonadoLotus1:39.448+0:02.341+0:00.11318
138R. GrosjeanLotus1:39.561+0:02.454+0:00.11321
1411S. PerezForce India1:39.582+0:02.475+0:00.02121
1526D. KwjatToro Rosso1:39.688+0:02.581+0:00.10619
1621E. GutierrezSauber1:40.208+0:03.101+0:00.52022
1725J. VergneToro Rosso1:41.443+0:04.336+0:01.23512
181S. VettelRed Bull1:43.765+0:06.658+0:02.32225
 107 % барьер1:43.904 
от пред. = от предыддущего
Написати коментар
Показати коментарі
Про цю статтю
Серія Формула 1
Тип статті Важливі новини